createdAt,value
2023-07-25T00:01:44.603Z,17.03
2023-07-25T00:06:46.236Z,16.99
2023-07-25T00:11:49.185Z,16.85
2023-07-25T00:16:50.920Z,16.67
2023-07-25T00:21:52.820Z,16.58
2023-07-25T00:26:55.824Z,16.40
2023-07-25T00:31:57.432Z,16.62
2023-07-25T00:36:59.101Z,16.62
2023-07-25T00:42:01.935Z,16.69
2023-07-25T00:47:03.684Z,16.66
2023-07-25T00:52:06.052Z,16.68
2023-07-25T00:57:09.146Z,16.67
2023-07-25T01:02:13.448Z,16.65
2023-07-25T01:07:15.522Z,16.66
2023-07-25T01:12:18.484Z,16.74
2023-07-25T01:17:23.944Z,16.76
2023-07-25T01:22:27.013Z,16.74
2023-07-25T01:27:30.049Z,16.76
2023-07-25T01:32:31.765Z,16.85
2023-07-25T01:37:33.348Z,16.62
2023-07-25T01:42:36.208Z,16.55
2023-07-25T01:47:37.725Z,16.44
2023-07-25T01:52:39.416Z,16.32
2023-07-25T01:57:42.250Z,16.39
2023-07-25T02:02:43.952Z,16.57
2023-07-25T02:07:45.569Z,16.54
2023-07-25T02:12:48.576Z,16.63
2023-07-25T02:17:50.236Z,16.41
2023-07-25T02:22:52.186Z,16.57
2023-07-25T02:27:55.104Z,16.65
2023-07-25T02:32:56.708Z,16.78
2023-07-25T02:37:58.340Z,16.96
2023-07-25T02:43:03.414Z,16.59
2023-07-25T02:48:05.512Z,16.57
2023-07-25T02:53:07.125Z,16.38
2023-07-25T02:58:09.944Z,16.30
2023-07-25T03:03:11.505Z,16.14
2023-07-25T03:08:13.080Z,16.29
2023-07-25T03:13:16.258Z,16.23
2023-07-25T03:18:17.879Z,16.14
2023-07-25T03:23:19.467Z,15.96
2023-07-25T03:28:22.434Z,16.17
2023-07-25T03:33:24.138Z,16.25
2023-07-25T03:38:25.690Z,16.23
2023-07-25T03:43:28.598Z,16.03
2023-07-25T03:48:30.196Z,16.10
2023-07-25T03:53:33.570Z,16.23
2023-07-25T03:58:36.479Z,16.40
2023-07-25T04:03:38.201Z,16.18
2023-07-25T04:08:40.002Z,16.21
2023-07-25T04:13:43.000Z,16.16
2023-07-25T04:18:45.360Z,16.07
2023-07-25T04:23:47.231Z,16.04
2023-07-25T04:28:50.214Z,16.11
2023-07-25T04:33:51.858Z,15.96
2023-07-25T04:38:53.533Z,16.10
2023-07-25T04:43:56.519Z,16.23
2023-07-25T04:48:58.139Z,16.35
2023-07-25T04:53:59.836Z,16.45
2023-07-25T04:59:02.776Z,16.46
2023-07-25T05:04:04.667Z,16.44
2023-07-25T05:09:06.374Z,16.57
2023-07-25T05:14:09.380Z,16.72
2023-07-25T05:19:10.988Z,16.64
2023-07-25T05:24:12.574Z,16.56
2023-07-25T05:29:15.524Z,16.53
2023-07-25T05:34:17.139Z,16.64
2023-07-25T05:39:18.730Z,16.59
2023-07-25T05:44:21.758Z,16.74
2023-07-25T05:49:23.414Z,16.80
2023-07-25T05:54:24.979Z,16.78
2023-07-25T05:59:27.861Z,16.67
2023-07-25T06:04:30.607Z,15.93
2023-07-25T06:09:32.276Z,15.72
2023-07-25T06:14:35.254Z,15.78
2023-07-25T06:19:36.820Z,16.11
2023-07-25T06:24:38.605Z,15.69
2023-07-25T06:29:41.669Z,14.90
2023-07-25T06:34:43.273Z,14.83
2023-07-25T06:39:44.905Z,15.01
2023-07-25T06:44:48.817Z,15.67
2023-07-25T06:49:50.501Z,15.95
2023-07-25T06:54:53.161Z,16.38
2023-07-25T06:59:56.091Z,16.57
2023-07-25T07:04:57.851Z,16.69
2023-07-25T07:09:59.410Z,16.61
2023-07-25T07:15:02.749Z,16.83
2023-07-25T07:20:07.245Z,16.69
2023-07-25T07:25:19.850Z,16.55
2023-07-25T07:30:22.778Z,16.44
2023-07-25T07:35:24.546Z,16.83
2023-07-25T07:40:26.212Z,17.06
2023-07-25T07:45:29.167Z,17.27
2023-07-25T07:50:30.792Z,17.13
2023-07-25T07:55:32.432Z,17.03
2023-07-25T08:00:35.412Z,17.28
2023-07-25T08:05:36.939Z,17.43
2023-07-25T08:10:38.560Z,17.36
2023-07-25T08:15:42.556Z,17.50
2023-07-25T08:20:44.220Z,17.60
2023-07-25T08:25:45.748Z,18.19
2023-07-25T08:30:48.715Z,18.57
2023-07-25T08:35:50.382Z,18.49
2023-07-25T08:40:56.384Z,18.04
2023-07-25T08:46:02.013Z,17.45
2023-07-25T08:51:06.906Z,17.32
2023-07-25T08:56:08.905Z,16.61
2023-07-25T09:01:12.941Z,17.05
2023-07-25T09:06:14.794Z,17.02
2023-07-25T09:11:19.390Z,17.19
2023-07-25T09:16:22.413Z,17.34
2023-07-25T09:21:24.029Z,17.62
2023-07-25T09:26:27.290Z,17.63
2023-07-25T09:31:30.321Z,17.54
2023-07-25T09:36:32.135Z,17.67
2023-07-25T09:41:36.399Z,18.12
2023-07-25T09:46:39.650Z,19.33
2023-07-25T09:51:57.567Z,19.58
2023-07-25T09:56:59.411Z,19.86
2023-07-25T10:02:03.038Z,19.91
2023-07-25T10:07:06.891Z,19.59
2023-07-25T10:12:09.682Z,18.89
2023-07-25T10:17:12.674Z,18.12
2023-07-25T10:22:14.351Z,18.63
2023-07-25T10:27:16.068Z,19.26
2023-07-25T10:32:45.942Z,19.66
2023-07-25T10:37:47.563Z,19.84
2023-07-25T10:47:59.741Z,20.68
2023-07-25T10:53:14.766Z,20.16
2023-07-25T10:58:17.006Z,20.57
2023-07-25T11:03:29.215Z,20.06
2023-07-25T11:08:30.919Z,20.07
2023-07-25T11:13:33.818Z,19.81
2023-07-25T11:18:38.065Z,20.35
2023-07-25T11:23:39.698Z,19.83
2023-07-25T11:28:41.301Z,19.33
2023-07-25T11:33:44.297Z,19.66
2023-07-25T11:38:45.837Z,20.46
2023-07-25T11:43:47.404Z,20.55
2023-07-25T11:48:50.419Z,20.57
2023-07-25T11:53:52.882Z,20.37
2023-07-25T11:58:55.475Z,20.09
2023-07-25T12:03:59.252Z,20.85
2023-07-25T12:09:02.006Z,19.97
2023-07-25T12:14:03.634Z,20.29
2023-07-25T12:19:09.558Z,20.96
2023-07-25T12:24:12.708Z,21.07
2023-07-25T12:29:15.267Z,20.59
2023-07-25T12:34:18.172Z,20.31
2023-07-25T12:39:19.707Z,17.64
2023-07-25T12:44:21.276Z,17.74
2023-07-25T12:49:24.472Z,18.10
2023-07-25T12:54:26.054Z,18.47
2023-07-25T12:59:27.661Z,18.36
2023-07-25T13:04:30.762Z,18.69
2023-07-25T13:09:32.414Z,18.52
2023-07-25T13:14:34.049Z,19.24
2023-07-25T13:19:37.025Z,19.17
2023-07-25T13:24:38.764Z,19.61
2023-07-25T13:29:40.372Z,18.96
2023-07-25T13:34:44.413Z,19.62
2023-07-25T13:39:45.955Z,20.09
2023-07-25T13:44:47.562Z,20.31
2023-07-25T13:49:50.448Z,19.94
2023-07-25T13:54:52.018Z,19.59
2023-07-25T13:59:53.500Z,20.24
2023-07-25T14:04:56.447Z,19.49
2023-07-25T14:09:58.089Z,15.96
2023-07-25T14:15:01.201Z,14.47
2023-07-25T14:20:07.023Z,13.93
2023-07-25T14:25:09.158Z,13.66
2023-07-25T14:30:11.072Z,14.01
2023-07-25T14:35:14.038Z,13.83
2023-07-25T14:40:15.809Z,13.92
2023-07-25T14:45:17.418Z,13.94
2023-07-25T14:50:20.275Z,14.08
2023-07-25T14:55:22.421Z,14.36
2023-07-25T15:00:24.092Z,14.29
2023-07-25T15:05:27.155Z,14.41
2023-07-25T15:10:28.807Z,15.05
2023-07-25T15:15:30.420Z,15.83
2023-07-25T15:20:33.362Z,15.91
2023-07-25T15:25:35.015Z,15.99
2023-07-25T15:30:36.650Z,16.07
2023-07-25T15:35:39.727Z,16.20
2023-07-25T15:40:41.475Z,16.76
2023-07-25T15:45:43.209Z,16.36
2023-07-25T15:50:46.233Z,16.71
2023-07-25T15:55:47.813Z,16.90
2023-07-25T16:00:49.534Z,16.99
2023-07-25T16:05:52.601Z,17.10
2023-07-25T16:10:54.180Z,17.13
2023-07-25T16:15:55.948Z,16.40
2023-07-25T16:20:58.904Z,16.42
2023-07-25T16:26:03.190Z,16.14
2023-07-25T16:31:22.770Z,15.87
2023-07-25T16:36:29.170Z,15.79
2023-07-25T16:41:31.109Z,15.75
2023-07-25T16:46:33.261Z,15.32
2023-07-25T16:51:36.284Z,14.95
2023-07-25T16:56:37.826Z,14.56
2023-07-25T17:01:39.425Z,14.34
2023-07-25T17:06:42.742Z,14.18
2023-07-25T17:11:44.322Z,14.06
2023-07-25T17:16:45.880Z,14.07
2023-07-25T17:21:49.146Z,13.89
2023-07-25T17:26:51.008Z,14.41
2023-07-25T17:31:52.647Z,14.46
2023-07-25T17:36:55.601Z,14.37
2023-07-25T17:41:57.260Z,14.65
2023-07-25T17:46:58.834Z,14.13
2023-07-25T17:52:01.769Z,14.01
2023-07-25T17:57:03.836Z,14.02
2023-07-25T18:02:06.962Z,13.60
2023-07-25T18:07:09.941Z,13.82
2023-07-25T18:12:11.989Z,13.81
2023-07-25T18:17:14.987Z,13.93
2023-07-25T18:22:17.950Z,13.54
2023-07-25T18:27:19.581Z,13.44
2023-07-25T18:32:21.265Z,13.41
2023-07-25T18:37:24.212Z,13.34
2023-07-25T18:42:25.899Z,13.34
2023-07-25T18:47:34.370Z,12.99
2023-07-25T18:52:37.889Z,12.80
2023-07-25T18:57:39.591Z,12.76
2023-07-25T19:02:41.323Z,12.72
2023-07-25T19:07:44.470Z,12.55
2023-07-25T19:12:46.065Z,12.43
2023-07-25T19:17:47.708Z,12.35
2023-07-25T19:22:50.640Z,12.35
2023-07-25T19:27:52.288Z,12.20
2023-07-25T19:32:53.991Z,12.05
2023-07-25T19:37:57.070Z,12.12
2023-07-25T19:42:58.687Z,12.01
2023-07-25T19:48:00.293Z,12.01
2023-07-25T19:53:07.609Z,11.95
2023-07-25T19:58:09.159Z,11.86
2023-07-25T20:03:11.847Z,11.87
2023-07-25T20:08:14.910Z,11.67
2023-07-25T20:13:17.100Z,11.82
2023-07-25T20:18:19.816Z,11.86
2023-07-25T20:23:23.861Z,11.93
2023-07-25T20:28:25.528Z,11.06
2023-07-25T20:33:27.266Z,10.92
2023-07-25T20:38:33.078Z,10.98
2023-07-25T20:43:34.758Z,11.21
2023-07-25T20:48:36.423Z,11.39
2023-07-25T20:53:39.472Z,11.46
2023-07-25T20:58:41.080Z,11.51
2023-07-25T21:03:43.774Z,11.67
2023-07-25T21:08:47.241Z,11.80
2023-07-25T21:13:48.961Z,11.79
2023-07-25T21:18:50.630Z,11.79
2023-07-25T21:23:53.562Z,11.76
2023-07-25T21:28:55.260Z,11.90
2023-07-25T21:33:56.897Z,11.82
2023-07-25T21:38:59.998Z,11.87
2023-07-25T21:44:01.684Z,11.84
2023-07-25T21:49:03.243Z,12.07
2023-07-25T21:54:06.137Z,12.06
2023-07-25T21:59:07.675Z,11.92
2023-07-25T22:04:11.319Z,12.14
2023-07-25T22:09:14.281Z,12.04
2023-07-25T22:14:15.922Z,12.17
2023-07-25T22:19:17.617Z,12.15
2023-07-25T22:24:20.695Z,12.07
2023-07-25T22:29:22.413Z,11.98
2023-07-25T22:34:24.106Z,12.02
2023-07-25T22:39:26.972Z,11.92
2023-07-25T22:44:28.623Z,11.95
2023-07-25T22:49:30.184Z,11.70
2023-07-25T22:54:33.091Z,11.83
2023-07-25T22:59:35.008Z,11.89
2023-07-25T23:04:36.683Z,11.65
2023-07-25T23:09:39.759Z,11.60
2023-07-25T23:14:41.310Z,11.41
2023-07-25T23:19:43.056Z,11.47
2023-07-25T23:24:46.062Z,11.43
2023-07-25T23:29:47.730Z,11.39
2023-07-25T23:34:51.172Z,11.56
2023-07-25T23:39:54.505Z,11.53
2023-07-25T23:44:56.030Z,11.43
2023-07-25T23:49:57.635Z,11.40
2023-07-25T23:55:01.105Z,11.50
